createdAt,value
2022-09-17T00:01:29.407Z,91.46
2022-09-17T00:04:17.280Z,90.90
2022-09-17T00:07:05.272Z,91.49
2022-09-17T00:09:53.001Z,91.09
2022-09-17T00:12:41.354Z,90.92
2022-09-17T00:15:29.363Z,91.13
2022-09-17T00:18:17.218Z,91.40
2022-09-17T00:21:05.090Z,91.05
2022-09-17T00:24:02.554Z,91.51
2022-09-17T00:26:50.788Z,91.20
2022-09-17T00:29:38.546Z,91.07
2022-09-17T00:32:27.377Z,91.00
2022-09-17T00:35:15.082Z,92.99
2022-09-17T00:38:02.922Z,94.21
2022-09-17T00:40:50.760Z,92.94
2022-09-17T00:43:47.256Z,92.74
2022-09-17T00:46:36.299Z,91.34
2022-09-17T00:49:29.716Z,92.26
2022-09-17T00:52:24.547Z,91.21
2022-09-17T00:55:24.946Z,91.04
2022-09-17T00:58:15.967Z,91.62
2022-09-17T01:01:04.448Z,93.51
2022-09-17T01:03:52.257Z,97.58
2022-09-17T01:06:51.641Z,98.43
2022-09-17T01:10:06.414Z,97.17
2022-09-17T01:13:18.547Z,96.43
2022-09-17T01:16:17.598Z,94.82
2022-09-17T01:19:45.579Z,94.21
2022-09-17T01:23:09.270Z,93.78
2022-09-17T01:26:02.535Z,94.43
2022-09-17T01:29:20.081Z,93.90
2022-09-17T01:32:28.357Z,93.04
2022-09-17T01:35:35.943Z,92.29
2022-09-17T01:38:56.704Z,92.24
2022-09-17T01:42:14.287Z,91.52
2022-09-17T01:45:22.401Z,91.39
2022-09-17T01:48:20.852Z,91.13
2022-09-17T01:51:13.218Z,92.26
2022-09-17T01:54:11.131Z,91.70
2022-09-17T01:57:09.164Z,90.60
2022-09-17T02:00:12.009Z,91.14
2022-09-17T02:03:24.419Z,91.49
2022-09-17T02:06:21.923Z,90.54
2022-09-17T02:09:22.365Z,90.06
2022-09-17T02:12:16.696Z,90.50
2022-09-17T02:15:11.344Z,90.77
2022-09-17T02:18:27.759Z,90.42
2022-09-17T02:21:30.636Z,90.26
2022-09-17T02:24:41.663Z,90.38
2022-09-17T02:28:11.395Z,90.57
2022-09-17T02:30:59.434Z,90.86
2022-09-17T02:33:53.982Z,90.04
2022-09-17T02:36:41.715Z,91.10
2022-09-17T02:39:29.731Z,90.57
2022-09-17T02:43:02.625Z,91.59
2022-09-17T02:46:27.374Z,92.22
2022-09-17T02:49:50.073Z,94.41
2022-09-17T02:53:29.424Z,97.32
2022-09-17T02:56:43.138Z,99.07
2022-09-17T02:59:59.227Z,99.88
2022-09-17T03:03:23.480Z,99.71
2022-09-17T03:06:11.923Z,100.00
2022-09-17T03:08:59.667Z,100.00
2022-09-17T03:11:47.518Z,100.00
2022-09-17T03:14:35.275Z,100.00
2022-09-17T03:17:23.001Z,100.00
2022-09-17T03:20:10.729Z,100.00
2022-09-17T03:22:58.495Z,100.00
2022-09-17T03:25:47.010Z,100.00
2022-09-17T03:28:34.778Z,100.00
2022-09-17T03:31:22.712Z,100.00
2022-09-17T03:34:10.573Z,100.00
2022-09-17T03:36:58.273Z,100.00
2022-09-17T03:39:46.024Z,100.00
2022-09-17T03:42:33.755Z,100.00
2022-09-17T03:45:21.531Z,100.00
2022-09-17T03:48:09.448Z,100.00
2022-09-17T03:50:57.213Z,100.00
2022-09-17T03:53:45.007Z,100.00
2022-09-17T03:56:33.306Z,100.00
2022-09-17T03:59:21.057Z,100.00
2022-09-17T04:02:08.895Z,100.00
2022-09-17T04:04:56.850Z,100.00
2022-09-17T04:07:44.580Z,100.00
2022-09-17T04:10:32.566Z,100.00
2022-09-17T04:13:21.310Z,100.00
2022-09-17T04:16:09.108Z,100.00
2022-09-17T04:18:56.981Z,100.00
2022-09-17T04:21:44.793Z,100.00
2022-09-17T04:24:32.511Z,100.00
2022-09-17T04:27:20.286Z,100.00
2022-09-17T04:30:12.120Z,100.00
2022-09-17T04:32:59.836Z,100.00
2022-09-17T04:35:48.057Z,100.00
2022-09-17T04:38:35.869Z,100.00
2022-09-17T04:41:23.674Z,100.00
2022-09-17T04:44:11.426Z,100.00
2022-09-17T04:46:59.273Z,100.00
2022-09-17T04:49:47.082Z,100.00
2022-09-17T04:52:34.827Z,100.00
2022-09-17T04:55:22.659Z,100.00
2022-09-17T04:58:11.077Z,100.00
2022-09-17T05:00:58.853Z,99.64
2022-09-17T05:03:46.654Z,99.49
2022-09-17T05:06:34.388Z,99.47
2022-09-17T05:09:22.106Z,97.97
2022-09-17T05:12:09.843Z,97.32
2022-09-17T05:14:57.583Z,97.31
2022-09-17T05:17:46.064Z,95.69
2022-09-17T05:20:34.065Z,95.99
2022-09-17T05:23:21.965Z,95.77
2022-09-17T05:26:10.073Z,96.72
2022-09-17T05:28:57.897Z,96.44
2022-09-17T05:31:45.942Z,97.25
2022-09-17T05:34:33.972Z,96.51
2022-09-17T05:37:21.714Z,97.85
2022-09-17T05:40:10.335Z,98.57
2022-09-17T05:43:02.839Z,98.48
2022-09-17T05:45:50.752Z,98.81
2022-09-17T05:48:38.505Z,98.65
2022-09-17T05:51:26.266Z,99.12
2022-09-17T05:54:14.039Z,100.00
2022-09-17T05:57:01.833Z,100.00
2022-09-17T05:59:49.633Z,100.00
2022-09-17T06:02:37.494Z,100.00
2022-09-17T06:05:25.526Z,100.00
2022-09-17T06:08:13.306Z,98.08
2022-09-17T06:11:05.495Z,97.04
2022-09-17T06:13:54.755Z,94.77
2022-09-17T06:16:42.802Z,93.35
2022-09-17T06:19:30.570Z,93.18
2022-09-17T06:22:20.230Z,91.59
2022-09-17T06:25:08.272Z,90.99
2022-09-17T06:27:56.022Z,90.60
2022-09-17T06:30:43.754Z,89.51
2022-09-17T06:33:32.548Z,87.50
2022-09-17T06:36:20.272Z,86.74
2022-09-17T06:39:08.272Z,85.96
2022-09-17T06:41:56.005Z,84.40
2022-09-17T06:44:43.854Z,83.17
2022-09-17T06:47:31.590Z,82.03
2022-09-17T06:50:19.662Z,79.12
2022-09-17T06:53:07.449Z,74.50
2022-09-17T06:56:02.309Z,74.65
2022-09-17T06:58:54.270Z,74.60
2022-09-17T07:01:42.819Z,73.81
2022-09-17T07:04:30.636Z,73.17
2022-09-17T07:07:18.420Z,74.67
2022-09-17T07:10:06.921Z,72.59
2022-09-17T07:12:54.869Z,73.06
2022-09-17T07:15:42.680Z,72.24
2022-09-17T07:18:30.667Z,71.92
2022-09-17T07:21:18.436Z,72.32
2022-09-17T07:24:06.493Z,69.67
2022-09-17T07:26:54.277Z,70.30
2022-09-17T07:29:42.130Z,70.75
2022-09-17T07:32:31.365Z,69.75
2022-09-17T07:35:19.126Z,66.46
2022-09-17T07:38:06.892Z,66.92
2022-09-17T07:40:59.173Z,67.64
2022-09-17T07:43:46.985Z,66.10
2022-09-17T07:46:34.829Z,66.98
2022-09-17T07:49:22.676Z,67.14
2022-09-17T07:52:10.752Z,66.44
2022-09-17T07:54:58.546Z,66.95
2022-09-17T07:57:51.638Z,65.00
2022-09-17T08:00:43.096Z,63.75
2022-09-17T08:03:31.251Z,65.36
2022-09-17T08:06:28.323Z,65.57
2022-09-17T08:09:18.507Z,65.87
2022-09-17T08:12:06.630Z,65.23
2022-09-17T08:14:54.363Z,64.67
2022-09-17T08:17:46.245Z,65.23
2022-09-17T08:20:34.308Z,66.24
2022-09-17T08:23:22.189Z,66.44
2022-09-17T08:26:27.960Z,66.13
2022-09-17T08:29:16.059Z,63.42
2022-09-17T08:32:03.882Z,61.65
2022-09-17T08:34:57.974Z,57.78
2022-09-17T08:37:47.342Z,59.21
2022-09-17T08:40:52.700Z,58.79
2022-09-17T08:44:07.487Z,57.15
2022-09-17T08:47:06.219Z,57.27
2022-09-17T08:50:00.126Z,55.40
2022-09-17T08:53:12.955Z,53.80
2022-09-17T08:56:09.506Z,53.62
2022-09-17T08:59:12.036Z,52.98
2022-09-17T09:02:21.503Z,50.64
2022-09-17T09:05:26.765Z,51.02
2022-09-17T09:08:30.507Z,49.96
2022-09-17T09:11:27.533Z,48.65
2022-09-17T09:14:39.415Z,50.57
2022-09-17T09:17:35.846Z,50.61
2022-09-17T09:21:12.415Z,50.49
2022-09-17T09:24:26.699Z,48.59
2022-09-17T09:27:28.483Z,45.81
2022-09-17T09:30:23.465Z,42.13
2022-09-17T09:33:19.499Z,42.68
2022-09-17T09:36:14.314Z,46.66
